sensor_id;sensor_type;location;lat;lon;timestamp;pressure;altitude;pressure_sealevel;temperature;humidity
72157;BME280;60035;52.122;5.406;2022-12-07T00:01:23;102050.56;;;3.46;100.00
72157;BME280;60035;52.122;5.406;2022-12-07T00:03:52;102047.22;;;3.47;100.00
72157;BME280;60035;52.122;5.406;2022-12-07T00:06:19;102051.41;;;3.45;100.00
72157;BME280;60035;52.122;5.406;2022-12-07T00:08:47;102046.25;;;3.41;100.00
72157;BME280;60035;52.122;5.406;2022-12-07T00:11:16;102053.84;;;3.41;100.00
72157;BME280;60035;52.122;5.406;2022-12-07T00:13:44;102051.28;;;3.39;100.00
72157;BME280;60035;52.122;5.406;2022-12-07T00:16:13;102049.53;;;3.37;100.00
72157;BME280;60035;52.122;5.406;2022-12-07T00:18:41;102051.25;;;3.36;100.00
72157;BME280;60035;52.122;5.406;2022-12-07T00:21:13;102051.16;;;3.33;100.00
72157;BME280;60035;52.122;5.406;2022-12-07T00:23:41;102049.50;;;3.33;100.00
72157;BME280;60035;52.122;5.406;2022-12-07T00:26:13;102048.63;;;3.33;100.00
72157;BME280;60035;52.122;5.406;2022-12-07T00:28:41;102043.53;;;3.31;100.00
72157;BME280;60035;52.122;5.406;2022-12-07T00:31:10;102047.75;;;3.31;100.00
72157;BME280;60035;52.122;5.406;2022-12-07T00:33:37;102042.63;;;3.28;100.00
72157;BME280;60035;52.122;5.406;2022-12-07T00:36:09;102032.44;;;3.25;100.00
72157;BME280;60035;52.122;5.406;2022-12-07T00:38:37;102038.31;;;3.24;100.00
72157;BME280;60035;52.122;5.406;2022-12-07T00:41:10;102036.69;;;3.26;100.00
72157;BME280;60035;52.122;5.406;2022-12-07T00:43:38;102035.00;;;3.26;100.00
72157;BME280;60035;52.122;5.406;2022-12-07T00:46:04;102031.63;;;3.26;100.00
72157;BME280;60035;52.122;5.406;2022-12-07T00:48:31;102022.31;;;3.25;100.00
72157;BME280;60035;52.122;5.406;2022-12-07T00:50:58;102023.91;;;3.21;100.00
72157;BME280;60035;52.122;5.406;2022-12-07T00:53:25;102018.00;;;3.19;100.00
72157;BME280;60035;52.122;5.406;2022-12-07T00:55:52;102029.75;;;3.17;100.00
72157;BME280;60035;52.122;5.406;2022-12-07T00:58:20;102026.38;;;3.16;100.00
72157;BME280;60035;52.122;5.406;2022-12-07T01:00:46;102023.03;;;3.17;100.00
72157;BME280;60035;52.122;5.406;2022-12-07T01:03:14;102022.09;;;3.14;100.00
72157;BME280;60035;52.122;5.406;2022-12-07T01:05:50;102018.66;;;3.12;100.00
72157;BME280;60035;52.122;5.406;2022-12-07T01:08:17;102019.47;;;3.11;100.00
72157;BME280;60035;52.122;5.406;2022-12-07T01:10:44;102016.97;;;3.11;100.00
72157;BME280;60035;52.122;5.406;2022-12-07T01:13:10;102019.47;;;3.09;100.00
72157;BME280;60035;52.122;5.406;2022-12-07T01:15:42;102015.25;;;3.08;100.00
72157;BME280;60035;52.122;5.406;2022-12-07T01:18:09;102022.84;;;3.08;100.00
72157;BME280;60035;52.122;5.406;2022-12-07T01:20:36;102017.81;;;3.11;100.00
72157;BME280;60035;52.122;5.406;2022-12-07T01:23:03;102020.44;;;3.16;100.00
72157;BME280;60035;52.122;5.406;2022-12-07T01:25:30;102022.13;;;3.15;100.00
72157;BME280;60035;52.122;5.406;2022-12-07T01:27:57;102023.81;;;3.15;100.00
72157;BME280;60035;52.122;5.406;2022-12-07T01:30:24;102030.53;;;3.14;100.00
72157;BME280;60035;52.122;5.406;2022-12-07T01:32:50;102029.69;;;3.14;100.00
72157;BME280;60035;52.122;5.406;2022-12-07T01:35:17;102028.81;;;3.13;100.00
72157;BME280;60035;52.122;5.406;2022-12-07T01:37:43;102021.94;;;3.06;100.00
72157;BME280;60035;52.122;5.406;2022-12-07T01:40:10;102026.09;;;3.04;100.00
72157;BME280;60035;52.122;5.406;2022-12-07T01:42:37;102018.47;;;3.03;100.00
72157;BME280;60035;52.122;5.406;2022-12-07T01:45:38;102027.72;;;3.00;100.00
72157;BME280;60035;52.122;5.406;2022-12-07T01:48:07;102028.53;;;2.98;100.00
72157;BME280;60035;52.122;5.406;2022-12-07T01:50:36;102024.25;;;2.95;100.00
72157;BME280;60035;52.122;5.406;2022-12-07T01:53:06;102033.44;;;2.92;100.00
72157;BME280;60035;52.122;5.406;2022-12-07T01:55:38;102022.41;;;2.90;100.00
72157;BME280;60035;52.122;5.406;2022-12-07T01:58:06;102034.16;;;2.85;100.00
72157;BME280;60035;52.122;5.406;2022-12-07T02:00:33;102027.38;;;2.83;100.00
72157;BME280;60035;52.122;5.406;2022-12-07T02:03:04;102028.19;;;2.82;100.00
72157;BME280;60035;52.122;5.406;2022-12-07T02:05:33;102030.72;;;2.82;100.00
72157;BME280;60035;52.122;5.406;2022-12-07T02:08:02;102023.09;;;2.81;100.00
72157;BME280;60035;52.122;5.406;2022-12-07T02:10:30;102026.50;;;2.83;100.00
72157;BME280;60035;52.122;5.406;2022-12-07T02:12:58;102025.66;;;2.82;100.00
72157;BME280;60035;52.122;5.406;2022-12-07T02:15:34;102023.16;;;2.84;100.00
72157;BME280;60035;52.122;5.406;2022-12-07T02:18:19;102024.91;;;2.88;100.00
72157;BME280;60035;52.122;5.406;2022-12-07T02:20:52;102025.09;;;2.96;100.00
72157;BME280;60035;52.122;5.406;2022-12-07T02:31:31;102018.66;;;3.10;100.00
72157;BME280;60035;52.122;5.406;2022-12-07T02:34:07;102016.97;;;3.11;100.00
72157;BME280;60035;52.122;5.406;2022-12-07T02:36:40;102014.47;;;3.12;100.00
72157;BME280;60035;52.122;5.406;2022-12-07T02:39:15;102015.34;;;3.14;100.00
72157;BME280;60035;52.122;5.406;2022-12-07T02:41:47;102015.38;;;3.16;100.00
72157;BME280;60035;52.122;5.406;2022-12-07T02:44:17;102006.13;;;3.16;100.00
72157;BME280;60035;52.122;5.406;2022-12-07T02:46:50;102009.53;;;3.19;100.00
72157;BME280;60035;52.122;5.406;2022-12-07T02:49:19;102005.34;;;3.19;100.00
72157;BME280;60035;52.122;5.406;2022-12-07T02:51:48;102013.78;;;3.20;100.00
72157;BME280;60035;52.122;5.406;2022-12-07T02:54:17;102006.13;;;3.16;100.00
72157;BME280;60035;52.122;5.406;2022-12-07T02:56:48;102013.72;;;3.16;100.00
72157;BME280;60035;52.122;5.406;2022-12-07T03:19:07;102001.28;;;3.27;100.00
72157;BME280;60035;52.122;5.406;2022-12-07T03:21:45;102010.59;;;3.30;100.00
72157;BME280;60035;52.122;5.406;2022-12-07T03:24:20;102009.84;;;3.34;100.00
72157;BME280;60035;52.122;5.406;2022-12-07T03:27:09;101999.75;;;3.37;100.00
72157;BME280;60035;52.122;5.406;2022-12-07T03:29:47;101998.09;;;3.38;100.00
72157;BME280;60035;52.122;5.406;2022-12-07T03:32:23;102000.59;;;3.36;100.00
72157;BME280;60035;52.122;5.406;2022-12-07T03:37:29;102004.66;;;3.29;100.00
72157;BME280;60035;52.122;5.406;2022-12-07T03:42:40;101991.84;;;3.20;100.00
72157;BME280;60035;52.122;5.406;2022-12-07T03:45:08;101997.72;;;3.17;100.00
72157;BME280;60035;52.122;5.406;2022-12-07T03:50:22;101984.88;;;3.08;100.00
72157;BME280;60035;52.122;5.406;2022-12-07T03:55:33;101995.81;;;3.07;100.00
72157;BME280;60035;52.122;5.406;2022-12-07T03:58:05;101997.53;;;3.08;100.00
72157;BME280;60035;52.122;5.406;2022-12-07T04:00:32;101995.03;;;3.10;100.00
72157;BME280;60035;52.122;5.406;2022-12-07T04:02:59;102000.13;;;3.13;100.00
72157;BME280;60035;52.122;5.406;2022-12-07T04:05:25;101996.78;;;3.12;100.00
72157;BME280;60035;52.122;5.406;2022-12-07T04:07:55;101992.53;;;3.13;100.00
72157;BME280;60035;52.122;5.406;2022-12-07T04:10:21;101987.50;;;3.14;100.00
72157;BME280;60035;52.122;5.406;2022-12-07T04:12:48;101986.66;;;3.14;100.00
72157;BME280;60035;52.122;5.406;2022-12-07T04:15:14;101982.44;;;3.14;100.00
72157;BME280;60035;52.122;5.406;2022-12-07T04:17:41;101975.69;;;3.13;100.00
72157;BME280;60035;52.122;5.406;2022-12-07T04:20:08;101976.56;;;3.14;100.00
72157;BME280;60035;52.122;5.406;2022-12-07T04:22:35;101979.09;;;3.15;100.00
72157;BME280;60035;52.122;5.406;2022-12-07T04:25:01;101978.31;;;3.18;100.00
72157;BME280;60035;52.122;5.406;2022-12-07T04:27:29;101980.06;;;3.21;100.00
72157;BME280;60035;52.122;5.406;2022-12-07T04:29:55;101983.41;;;3.20;100.00
72157;BME280;60035;52.122;5.406;2022-12-07T04:32:23;101980.84;;;3.18;100.00
72157;BME280;60035;52.122;5.406;2022-12-07T04:34:50;101980.81;;;3.16;100.00
72157;BME280;60035;52.122;5.406;2022-12-07T04:37:21;101983.31;;;3.15;100.00
72157;BME280;60035;52.122;5.406;2022-12-07T04:39:48;101980.78;;;3.15;100.00
72157;BME280;60035;52.122;5.406;2022-12-07T04:42:14;101978.22;;;3.13;100.00
72157;BME280;60035;52.122;5.406;2022-12-07T04:44:41;101981.59;;;3.14;100.00
72157;BME280;60035;52.122;5.406;2022-12-07T04:47:10;101989.19;;;3.14;100.00
72157;BME280;60035;52.122;5.406;2022-12-07T04:49:37;101985.84;;;3.15;100.00
72157;BME280;60035;52.122;5.406;2022-12-07T04:52:04;101977.41;;;3.16;100.00
72157;BME280;60035;52.122;5.406;2022-12-07T04:54:30;101979.16;;;3.19;100.00
72157;BME280;60035;52.122;5.406;2022-12-07T04:56:57;101976.75;;;3.25;100.00
72157;BME280;60035;52.122;5.406;2022-12-07T04:59:23;101977.66;;;3.28;100.00
72157;BME280;60035;52.122;5.406;2022-12-07T05:01:50;101970.91;;;3.29;100.00
72157;BME280;60035;52.122;5.406;2022-12-07T05:04:17;101970.91;;;3.29;100.00
72157;BME280;60035;52.122;5.406;2022-12-07T05:06:44;101970.91;;;3.29;100.00
72157;BME280;60035;52.122;5.406;2022-12-07T05:09:10;101964.94;;;3.25;100.00
72157;BME280;60035;52.122;5.406;2022-12-07T05:11:37;101965.69;;;3.21;100.00
72157;BME280;60035;52.122;5.406;2022-12-07T05:14:17;101957.22;;;3.17;100.00
72157;BME280;60035;52.122;5.406;2022-12-07T05:16:44;101965.63;;;3.16;100.00
72157;BME280;60035;52.122;5.406;2022-12-07T05:19:11;101964.72;;;3.13;100.00
72157;BME280;60035;52.122;5.406;2022-12-07T05:21:39;101963.78;;;3.09;100.00
72157;BME280;60035;52.122;5.406;2022-12-07T05:24:06;101959.50;;;3.05;100.00
72157;BME280;60035;52.122;5.406;2022-12-07T05:26:33;101966.22;;;3.03;100.00
72157;BME280;60035;52.122;5.406;2022-12-07T05:29:00;101964.41;;;2.99;100.00
72157;BME280;60035;52.122;5.406;2022-12-07T05:31:27;101964.38;;;2.96;100.00
72157;BME280;60035;52.122;5.406;2022-12-07T05:33:54;101957.53;;;2.90;100.00
72157;BME280;60035;52.122;5.406;2022-12-07T05:36:21;101957.41;;;2.86;100.00
72157;BME280;60035;52.122;5.406;2022-12-07T05:38:48;101962.38;;;2.81;100.00
72157;BME280;60035;52.122;5.406;2022-12-07T05:41:17;101958.91;;;2.76;100.00
72157;BME280;60035;52.122;5.406;2022-12-07T05:44:03;101969.84;;;2.75;100.00
72157;BME280;60035;52.122;5.406;2022-12-07T05:46:29;101961.31;;;2.71;100.00
72157;BME280;60035;52.122;5.406;2022-12-07T05:48:56;101967.22;;;2.70;100.00
72157;BME280;60035;52.122;5.406;2022-12-07T05:51:22;101967.19;;;2.69;100.00
72157;BME280;60035;52.122;5.406;2022-12-07T05:53:53;101964.63;;;2.67;100.00
72157;BME280;60035;52.122;5.406;2022-12-07T05:56:20;101962.94;;;2.66;100.00
72157;BME280;60035;52.122;5.406;2022-12-07T05:58:46;101974.69;;;2.64;100.00
72157;BME280;60035;52.122;5.406;2022-12-07T06:01:32;101966.25;;;2.63;100.00
72157;BME280;60035;52.122;5.406;2022-12-07T06:03:58;101969.63;;;2.64;100.00
72157;BME280;60035;52.122;5.406;2022-12-07T06:06:25;101967.91;;;2.63;100.00
72157;BME280;60035;52.122;5.406;2022-12-07T06:08:52;101973.84;;;2.63;100.00
72157;BME280;60035;52.122;5.406;2022-12-07T06:11:18;101967.91;;;2.63;100.00
72157;BME280;60035;52.122;5.406;2022-12-07T06:14:04;101965.31;;;2.60;100.00
72157;BME280;60035;52.122;5.406;2022-12-07T06:16:30;101972.03;;;2.59;100.00
72157;BME280;60035;52.122;5.406;2022-12-07T06:18:57;101966.94;;;2.58;100.00
72157;BME280;60035;52.122;5.406;2022-12-07T06:21:24;101977.06;;;2.58;100.00
72157;BME280;60035;52.122;5.406;2022-12-07T06:23:52;101972.03;;;2.59;100.00
72157;BME280;60035;52.122;5.406;2022-12-07T06:26:19;101978.00;;;2.61;100.00
72157;BME280;60035;52.122;5.406;2022-12-07T06:28:45;101976.31;;;2.62;100.00
72157;BME280;60035;52.122;5.406;2022-12-07T06:31:12;101977.19;;;2.62;100.00
72157;BME280;60035;52.122;5.406;2022-12-07T06:33:40;101975.47;;;2.61;100.00
72157;BME280;60035;52.122;5.406;2022-12-07T06:36:07;101977.97;;;2.60;100.00
72157;BME280;60035;52.122;5.406;2022-12-07T06:38:33;101973.72;;;2.59;100.00
72157;BME280;60035;52.122;5.406;2022-12-07T06:41:00;101973.72;;;2.59;100.00
72157;BME280;60035;52.122;5.406;2022-12-07T06:43:27;101970.38;;;2.60;100.00
72157;BME280;60035;52.122;5.406;2022-12-07T06:45:55;101972.91;;;2.60;100.00
72157;BME280;60035;52.122;5.406;2022-12-07T06:48:23;101973.78;;;2.62;100.00
72157;BME280;60035;52.122;5.406;2022-12-07T06:50:49;101984.75;;;2.62;100.00
72157;BME280;60035;52.122;5.406;2022-12-07T06:53:20;101978.91;;;2.65;100.00
72157;BME280;60035;52.122;5.406;2022-12-07T06:55:47;101977.19;;;2.64;100.00
72157;BME280;60035;52.122;5.406;2022-12-07T06:58:14;101979.72;;;2.64;100.00
72157;BME280;60035;52.122;5.406;2022-12-07T07:00:40;101974.63;;;2.61;100.00
72157;BME280;60035;52.122;5.406;2022-12-07T07:03:07;101981.31;;;2.59;100.00
72157;BME280;60035;52.122;5.406;2022-12-07T07:05:34;101968.56;;;2.54;100.00
72157;BME280;60035;52.122;5.406;2022-12-07T07:08:01;101972.69;;;2.50;100.00
72157;BME280;60035;52.122;5.406;2022-12-07T07:10:48;101968.44;;;2.48;100.00
72157;BME280;60035;52.122;5.406;2022-12-07T07:13:15;101965.88;;;2.46;100.00
72157;BME280;60035;52.122;5.406;2022-12-07T07:15:41;101966.69;;;2.45;100.00
72157;BME280;60035;52.122;5.406;2022-12-07T07:18:09;101970.91;;;2.45;100.00
72157;BME280;60035;52.122;5.406;2022-12-07T07:20:37;101969.16;;;2.42;100.00
72157;BME280;60035;52.122;5.406;2022-12-07T07:23:04;101974.13;;;2.39;100.00
72157;BME280;60035;52.122;5.406;2022-12-07T07:25:31;101974.13;;;2.39;100.00
72157;BME280;60035;52.122;5.406;2022-12-07T07:27:58;101979.97;;;2.37;100.00
72157;BME280;60035;52.122;5.406;2022-12-07T07:30:25;101979.94;;;2.35;100.00
72157;BME280;60035;52.122;5.406;2022-12-07T07:33:01;101976.53;;;2.33;100.00
72157;BME280;60035;52.122;5.406;2022-12-07T07:35:29;101970.50;;;2.28;100.00
72157;BME280;60035;52.122;5.406;2022-12-07T07:37:56;101973.78;;;2.24;100.00
72157;BME280;60035;52.122;5.406;2022-12-07T07:40:23;101970.31;;;2.19;100.00
72157;BME280;60035;52.122;5.406;2022-12-07T07:42:51;101970.22;;;2.15;100.00
72157;BME280;60035;52.122;5.406;2022-12-07T07:45:19;101978.63;;;2.14;100.00
72157;BME280;60035;52.122;5.406;2022-12-07T07:47:47;101978.63;;;2.14;100.00
72157;BME280;60035;52.122;5.406;2022-12-07T07:50:14;101976.94;;;2.15;100.00
72157;BME280;60035;52.122;5.406;2022-12-07T07:52:41;101978.56;;;2.13;100.00
72157;BME280;60035;52.122;5.406;2022-12-07T07:55:08;101981.06;;;2.11;100.00
72157;BME280;60035;52.122;5.406;2022-12-07T07:57:35;101979.41;;;2.12;100.00
72157;BME280;60035;52.122;5.406;2022-12-07T08:00:08;101981.94;;;2.12;100.00
72157;BME280;60035;52.122;5.406;2022-12-07T08:02:35;101977.75;;;2.14;100.00
72157;BME280;60035;52.122;5.406;2022-12-07T08:05:02;101982.03;;;2.16;100.00
72157;BME280;60035;52.122;5.406;2022-12-07T08:07:29;101982.94;;;2.19;100.00
72157;BME280;60035;52.122;5.406;2022-12-07T08:09:55;101984.72;;;2.23;100.00
72157;BME280;60035;52.122;5.406;2022-12-07T08:12:22;101986.50;;;2.27;100.00
72157;BME280;60035;52.122;5.406;2022-12-07T08:14:48;101987.38;;;2.29;100.00
72157;BME280;60035;52.122;5.406;2022-12-07T08:17:15;101986.53;;;2.30;100.00
72157;BME280;60035;52.122;5.406;2022-12-07T08:19:42;101988.28;;;2.32;100.00
72157;BME280;60035;52.122;5.406;2022-12-07T08:22:08;101993.47;;;2.37;100.00
72157;BME280;60035;52.122;5.406;2022-12-07T08:24:35;102007.09;;;2.44;100.00
72157;BME280;60035;52.122;5.406;2022-12-07T08:27:05;102005.63;;;2.54;100.00
72157;BME280;60035;52.122;5.406;2022-12-07T08:29:31;101998.34;;;2.66;100.00
72157;BME280;60035;52.122;5.406;2022-12-07T08:31:58;101995.16;;;2.76;100.00
72157;BME280;60035;52.122;5.406;2022-12-07T08:34:33;101992.88;;;2.87;100.00
72157;BME280;60035;52.122;5.406;2022-12-07T08:37:00;101977.91;;;2.98;100.00
72157;BME280;60035;52.122;5.406;2022-12-07T08:39:27;101985.69;;;3.07;100.00
72157;BME280;60035;52.122;5.406;2022-12-07T08:41:58;101989.25;;;3.17;100.00
72157;BME280;60035;52.122;5.406;2022-12-07T08:44:24;101995.38;;;3.28;100.00
72157;BME280;60035;52.122;5.406;2022-12-07T08:46:55;101993.00;;;3.36;100.00
72157;BME280;60035;52.122;5.406;2022-12-07T08:49:31;101993.09;;;3.42;100.00
72157;BME280;60035;52.122;5.406;2022-12-07T08:51:59;101990.69;;;3.48;100.00
72157;BME280;60035;52.122;5.406;2022-12-07T08:54:27;101992.56;;;3.57;100.00
72157;BME280;60035;52.122;5.406;2022-12-07T08:56:56;101992.63;;;3.62;100.00
72157;BME280;60035;52.122;5.406;2022-12-07T08:59:26;101986.78;;;3.66;100.00
72157;BME280;60035;52.122;5.406;2022-12-07T09:01:53;101988.50;;;3.67;100.00
72157;BME280;60035;52.122;5.406;2022-12-07T09:04:20;101986.81;;;3.67;100.00
72157;BME280;60035;52.122;5.406;2022-12-07T09:06:47;101991.88;;;3.69;100.00
72157;BME280;60035;52.122;5.406;2022-12-07T09:09:14;101989.34;;;3.69;100.00
72157;BME280;60035;52.122;5.406;2022-12-07T09:11:47;101994.50;;;3.72;100.00
72157;BME280;60035;52.122;5.406;2022-12-07T09:14:16;101992.00;;;3.75;100.00
72157;BME280;60035;52.122;5.406;2022-12-07T09:16:43;101980.25;;;3.79;100.00
72157;BME280;60035;52.122;5.406;2022-12-07T09:19:09;101984.59;;;3.86;100.00
72157;BME280;60035;52.122;5.406;2022-12-07T09:21:36;101976.34;;;3.99;100.00
72157;BME280;60035;52.122;5.406;2022-12-07T09:24:03;101988.28;;;4.05;100.00
72157;BME280;60035;52.122;5.406;2022-12-07T09:26:29;101998.63;;;4.17;100.00
72157;BME280;60035;52.122;5.406;2022-12-07T09:28:56;101995.41;;;4.28;100.00
72157;BME280;60035;52.122;5.406;2022-12-07T09:31:22;102004.75;;;4.32;100.00
72157;BME280;60035;52.122;5.406;2022-12-07T09:34:09;102003.91;;;4.31;100.00
72157;BME280;60035;52.122;5.406;2022-12-07T09:36:36;102005.59;;;4.32;100.00
72157;BME280;60035;52.122;5.406;2022-12-07T09:39:03;101999.72;;;4.33;100.00
72157;BME280;60035;52.122;5.406;2022-12-07T09:41:32;101994.69;;;4.37;100.00
72157;BME280;60035;52.122;5.406;2022-12-07T09:44:14;101993.06;;;4.42;100.00
72157;BME280;60035;52.122;5.406;2022-12-07T09:46:43;101989.81;;;4.50;100.00
72157;BME280;60035;52.122;5.406;2022-12-07T09:49:21;101987.38;;;4.57;100.00
72157;BME280;60035;52.122;5.406;2022-12-07T09:54:41;101982.44;;;4.67;99.81
72157;BME280;60035;52.122;5.406;2022-12-07T09:57:11;101982.44;;;4.67;100.00
72157;BME280;60035;52.122;5.406;2022-12-07T09:59:39;101979.06;;;4.67;99.89
72157;BME280;60035;52.122;5.406;2022-12-07T10:04:48;101971.59;;;4.78;99.34
72157;BME280;60035;52.122;5.406;2022-12-07T10:07:15;101972.44;;;4.80;99.15
72157;BME280;60035;52.122;5.406;2022-12-07T10:09:41;101970.72;;;4.79;98.93
72157;BME280;60035;52.122;5.406;2022-12-07T10:12:11;101971.63;;;4.81;98.62
72157;BME280;60035;52.122;5.406;2022-12-07T10:14:55;101961.50;;;4.84;98.49
72157;BME280;60035;52.122;5.406;2022-12-07T10:17:40;101964.09;;;4.87;98.01
72157;BME280;60035;52.122;5.406;2022-12-07T10:20:13;101963.31;;;4.93;98.24
72157;BME280;60035;52.122;5.406;2022-12-07T10:22:58;101959.22;;;5.06;97.84
72157;BME280;60035;52.122;5.406;2022-12-07T10:25:28;101954.38;;;5.29;98.01
72157;BME280;60035;52.122;5.406;2022-12-07T10:30:56;101943.56;;;5.47;97.40
72157;BME280;60035;52.122;5.406;2022-12-07T10:36:36;101943.38;;;5.28;96.58
72157;BME280;60035;52.122;5.406;2022-12-07T10:39:12;101944.22;;;5.26;96.71
72157;BME280;60035;52.122;5.406;2022-12-07T10:41:56;101940.88;;;5.31;96.53
72157;BME280;60035;52.122;5.406;2022-12-07T10:44:25;101936.81;;;5.49;96.74
72157;BME280;60035;52.122;5.406;2022-12-07T10:47:07;101937.69;;;5.53;96.13
72157;BME280;60035;52.122;5.406;2022-12-07T10:52:34;101933.50;;;5.59;96.05
72157;BME280;60035;52.122;5.406;2022-12-07T10:55:33;101933.53;;;5.61;95.85
72157;BME280;60035;52.122;5.406;2022-12-07T11:13:56;101915.16;;;5.94;94.66
72157;BME280;60035;52.122;5.406;2022-12-07T11:16:55;101916.06;;;5.98;94.38
72157;BME280;60035;52.122;5.406;2022-12-07T11:22:36;101911.00;;;5.99;93.96
72157;BME280;60035;52.122;5.406;2022-12-07T11:30:38;101906.59;;;5.78;93.14
72157;BME280;60035;52.122;5.406;2022-12-07T11:33:41;101892.97;;;5.72;92.75
72157;BME280;60035;52.122;5.406;2022-12-07T11:36:24;101900.56;;;5.67;92.95
72157;BME280;60035;52.122;5.406;2022-12-07T11:39:02;101889.47;;;5.59;92.59
72157;BME280;60035;52.122;5.406;2022-12-07T11:41:35;101889.41;;;5.53;92.80
72157;BME280;60035;52.122;5.406;2022-12-07T11:44:55;101886.88;;;5.49;92.81
72157;BME280;60035;52.122;5.406;2022-12-07T11:47:05;101879.31;;;5.56;93.34
72157;BME280;60035;52.122;5.406;2022-12-07T11:50:03;101881.91;;;5.65;93.31
72157;BME280;60035;52.122;5.406;2022-12-07T11:52:44;101883.63;;;5.67;93.16
72157;BME280;60035;52.122;5.406;2022-12-07T11:55:30;101878.56;;;5.71;92.71
72157;BME280;60035;52.122;5.406;2022-12-07T11:58:04;101883.66;;;5.74;92.82
72157;BME280;60035;52.122;5.406;2022-12-07T12:00:39;101875.22;;;5.79;92.67
72157;BME280;60035;52.122;5.406;2022-12-07T12:03:20;101877.03;;;5.94;92.52
72157;BME280;60035;52.122;5.406;2022-12-07T12:05:50;101868.66;;;6.08;92.63
72157;BME280;60035;52.122;5.406;2022-12-07T12:08:54;101862.81;;;6.16;91.76
72157;BME280;60035;52.122;5.406;2022-12-07T12:18:48;101852.72;;;6.37;89.26
72157;BME280;60035;52.122;5.406;2022-12-07T12:20:46;101852.75;;;6.46;88.88
72157;BME280;60035;52.122;5.406;2022-12-07T12:23:41;101849.38;;;6.48;88.18
72157;BME280;60035;52.122;5.406;2022-12-07T12:26:24;101849.38;;;6.52;88.13
72157;BME280;60035;52.122;5.406;2022-12-07T12:29:18;101846.06;;;6.73;87.96
72157;BME280;60035;52.122;5.406;2022-12-07T12:31:48;101849.47;;;6.86;87.52
72157;BME280;60035;52.122;5.406;2022-12-07T12:34:38;101836.75;;;6.98;87.52
72157;BME280;60035;52.122;5.406;2022-12-07T12:42:52;101830.88;;;7.24;85.51
72157;BME280;60035;52.122;5.406;2022-12-07T12:45:27;101820.66;;;7.38;85.82
72157;BME280;60035;52.122;5.406;2022-12-07T12:50:28;101816.38;;;7.64;84.34
72157;BME280;60035;52.122;5.406;2022-12-07T12:53:00;101817.22;;;7.71;84.05
72157;BME280;60035;52.122;5.406;2022-12-07T12:55:49;101817.22;;;7.74;82.91
72157;BME280;60035;52.122;5.406;2022-12-07T13:01:30;101820.66;;;7.61;82.72
72157;BME280;60035;52.122;5.406;2022-12-07T13:03:35;101840.19;;;7.22;80.51
72157;BME280;60035;52.122;5.406;2022-12-07T13:06:34;101835.03;;;6.74;82.13
72157;BME280;60035;52.122;5.406;2022-12-07T13:09:02;101828.97;;;6.45;83.62
72157;BME280;60035;52.122;5.406;2022-12-07T13:11:38;101817.91;;;6.23;84.84
72157;BME280;60035;52.122;5.406;2022-12-07T13:14:43;101807.59;;;6.03;86.06
72157;BME280;60035;52.122;5.406;2022-12-07T13:20:03;101796.44;;;5.78;87.49
72157;BME280;60035;52.122;5.406;2022-12-07T13:27:26;101794.53;;;5.49;88.79
72157;BME280;60035;52.122;5.406;2022-12-07T13:29:56;101790.28;;;5.43;88.69
72157;BME280;60035;52.122;5.406;2022-12-07T13:32:25;101782.59;;;5.32;89.32
72157;BME280;60035;52.122;5.406;2022-12-07T13:34:52;101783.41;;;5.28;89.68
72157;BME280;60035;52.122;5.406;2022-12-07T13:37:27;101780.88;;;5.28;90.70
72157;BME280;60035;52.122;5.406;2022-12-07T13:40:17;101776.63;;;5.30;90.82
72157;BME280;60035;52.122;5.406;2022-12-07T13:42:45;101775.78;;;5.30;91.06
72157;BME280;60035;52.122;5.406;2022-12-07T13:45:31;101770.72;;;5.30;91.75
72157;BME280;60035;52.122;5.406;2022-12-07T13:49:03;101774.13;;;5.32;91.68
72157;BME280;60035;52.122;5.406;2022-12-07T13:51:23;101765.69;;;5.34;92.24
72157;BME280;60035;52.122;5.406;2022-12-07T13:53:53;101768.25;;;5.38;92.38
72157;BME280;60035;52.122;5.406;2022-12-07T13:56:33;101764.88;;;5.40;92.03
72157;BME280;60035;52.122;5.406;2022-12-07T13:59:01;101764.00;;;5.40;92.46
72157;BME280;60035;52.122;5.406;2022-12-07T14:01:30;101760.63;;;5.39;92.44
72157;BME280;60035;52.122;5.406;2022-12-07T14:04:16;101758.97;;;5.41;92.60
72157;BME280;60035;52.122;5.406;2022-12-07T14:06:49;101756.44;;;5.49;92.78
72157;BME280;60035;52.122;5.406;2022-12-07T14:09:24;101752.25;;;5.51;93.01
72157;BME280;60035;52.122;5.406;2022-12-07T14:11:54;101755.63;;;5.50;93.15
72157;BME280;60035;52.122;5.406;2022-12-07T14:14:29;101748.00;;;5.51;93.51
72157;BME280;60035;52.122;5.406;2022-12-07T14:17:16;101745.50;;;5.55;93.39
72157;BME280;60035;52.122;5.406;2022-12-07T14:19:50;101753.13;;;5.61;93.68
72157;BME280;60035;52.122;5.406;2022-12-07T14:22:25;101749.75;;;5.63;93.88
72157;BME280;60035;52.122;5.406;2022-12-07T14:27:40;101742.16;;;5.65;93.66
72157;BME280;60035;52.122;5.406;2022-12-07T14:30:17;101738.75;;;5.66;93.70
72157;BME280;60035;52.122;5.406;2022-12-07T14:32:44;101731.13;;;5.64;93.97
72157;BME280;60035;52.122;5.406;2022-12-07T14:35:17;101736.22;;;5.63;93.78
72157;BME280;60035;52.122;5.406;2022-12-07T14:37:46;101734.50;;;5.63;93.80
72157;BME280;60035;52.122;5.406;2022-12-07T14:40:25;101736.22;;;5.61;93.65
72157;BME280;60035;52.122;5.406;2022-12-07T14:42:57;101730.25;;;5.58;93.57
72157;BME280;60035;52.122;5.406;2022-12-07T14:45:26;101727.72;;;5.58;93.28
72157;BME280;60035;52.122;5.406;2022-12-07T14:47:53;101719.22;;;5.51;93.13
72157;BME280;60035;52.122;5.406;2022-12-07T14:50:49;101718.34;;;5.44;92.63
72157;BME280;60035;52.122;5.406;2022-12-07T14:53:44;101721.69;;;5.40;92.65
72157;BME280;60035;52.122;5.406;2022-12-07T14:56:18;101725.91;;;5.38;92.54
72157;BME280;60035;52.122;5.406;2022-12-07T14:58:45;101722.50;;;5.34;92.40
72157;BME280;60035;52.122;5.406;2022-12-07T15:01:14;101721.63;;;5.31;92.47